Time;durP1;ratioP1;P1;durP2;ratioP2;P2;SDS_P1;SDS_P2;PMS_P1;PMS_P2;Temp;Humidity;BMP_temperature;BMP_pressure;BME280_temperature;BME280_humidity;BME280_pressure;Samples;Min_cycle;Max_cycle;Signal;HPM_P1;HPM_P2
2021/01/28 00:01:05;;;;;;;64.23;26.80;;;7.40;95.90;;;;;;4391529;32;20179;-66
2021/01/28 00:03:33;;;;;;;64.73;27.27;;;7.40;95.90;;;;;;4378300;32;20176;-67
2021/01/28 00:06:00;;;;;;;81.97;29.63;;;7.40;95.80;;;;;;4393502;32;20170;-66
2021/01/28 00:08:27;;;;;;;63.40;27.57;;;7.30;95.80;;;;;;4392165;32;20172;-67
2021/01/28 00:10:54;;;;;;;62.23;26.07;;;7.30;95.90;;;;;;4393061;32;20535;-68
2021/01/28 00:13:20;;;;;;;61.77;27.40;;;7.30;96.00;;;;;;4392463;32;20232;-70
2021/01/28 00:15:46;;;;;;;63.33;26.77;;;7.30;95.90;;;;;;4392911;32;20211;-67
2021/01/28 00:18:15;;;;;;;54.43;24.70;;;7.40;95.90;;;;;;4390217;32;20192;-67
2021/01/28 00:20:44;;;;;;;59.30;24.60;;;7.40;95.80;;;;;;4391718;32;20253;-66
2021/01/28 00:23:10;;;;;;;60.80;25.70;;;7.40;95.80;;;;;;4392623;32;20537;-66
2021/01/28 00:25:38;;;;;;;54.63;24.23;;;7.40;95.80;;;;;;4391427;32;20220;-67
2021/01/28 00:28:05;;;;;;;62.37;24.53;;;7.50;95.70;;;;;;4381926;32;20152;-69
2021/01/28 00:30:34;;;;;;;59.83;24.03;;;7.40;95.70;;;;;;4391729;32;20207;-66
2021/01/28 00:33:01;;;;;;;57.73;22.80;;;7.40;95.70;;;;;;4381927;32;20254;-66
2021/01/28 00:35:30;;;;;;;53.80;22.03;;;7.50;95.70;;;;;;4392614;32;20527;-65
2021/01/28 00:37:58;;;;;;;55.17;22.77;;;7.50;95.70;;;;;;4390811;32;20282;-66
2021/01/28 00:40:26;;;;;;;52.13;22.23;;;7.50;95.60;;;;;;4391264;32;20211;-67
2021/01/28 00:42:53;;;;;;;43.93;20.47;;;7.50;95.60;;;;;;4391698;32;20243;-67
2021/01/28 00:45:21;;;;;;;56.80;20.70;;;7.50;95.50;;;;;;4391446;32;20148;-66
2021/01/28 00:47:48;;;;;;;42.37;20.93;;;7.50;95.50;;;;;;4391894;32;20254;-66
2021/01/28 00:50:16;;;;;;;59.03;21.53;;;7.40;95.40;;;;;;4391142;32;20233;-65
2021/01/28 00:52:43;;;;;;;51.70;22.63;;;7.30;95.40;;;;;;4390979;32;20220;-66
2021/01/28 00:55:13;;;;;;;45.73;21.10;;;7.30;95.50;;;;;;4388137;32;20220;-66
2021/01/28 00:57:39;;;;;;;52.33;21.20;;;7.30;95.60;;;;;;4390651;32;20219;-66
2021/01/28 01:00:12;;;;;;;50.73;21.73;;;7.30;95.70;;;;;;4391163;32;20265;-66
2021/01/28 01:02:38;;;;;;;56.80;21.23;;;7.30;95.70;;;;;;4390913;32;20242;-66
2021/01/28 01:05:05;;;;;;;47.53;21.43;;;7.30;95.70;;;;;;4390708;32;20160;-65
2021/01/28 01:07:32;;;;;;;50.17;21.77;;;7.30;95.70;;;;;;4376981;32;20212;-66
2021/01/28 01:09:58;;;;;;;51.03;21.37;;;7.30;95.60;;;;;;4382782;32;20236;-66
2021/01/28 01:12:24;;;;;;;45.70;20.83;;;7.40;95.50;;;;;;4390738;32;20223;-66
2021/01/28 01:14:50;;;;;;;46.07;22.00;;;7.40;95.40;;;;;;4392655;32;20156;-66
2021/01/28 01:17:18;;;;;;;58.03;23.93;;;7.40;95.40;;;;;;4390809;32;20468;-66
2021/01/28 01:19:44;;;;;;;48.27;23.10;;;7.40;95.30;;;;;;4390605;32;20182;-66
2021/01/28 01:22:10;;;;;;;60.60;26.27;;;7.40;95.30;;;;;;4387056;32;20231;-66
2021/01/28 01:24:37;;;;;;;65.03;26.23;;;7.40;95.20;;;;;;4391154;32;20149;-66
2021/01/28 01:27:04;;;;;;;60.27;23.77;;;7.40;95.20;;;;;;4390623;32;20163;-65
2021/01/28 01:29:30;;;;;;;63.80;25.33;;;7.40;95.20;;;;;;4385249;32;20628;-66
2021/01/28 01:31:56;;;;;;;58.63;25.50;;;7.40;95.20;;;;;;4392098;32;20168;-65
2021/01/28 01:34:23;;;;;;;76.30;29.30;;;7.40;95.20;;;;;;4391913;32;20487;-65
2021/01/28 01:36:49;;;;;;;65.23;29.20;;;7.30;95.20;;;;;;4390141;32;20148;-65
2021/01/28 01:39:16;;;;;;;66.43;26.60;;;7.20;95.20;;;;;;4377984;32;20202;-65
2021/01/28 01:41:42;;;;;;;62.83;27.97;;;7.30;95.30;;;;;;4390545;32;20233;-65
2021/01/28 01:44:09;;;;;;;67.07;27.43;;;7.30;95.20;;;;;;4392076;32;20527;-65
2021/01/28 01:46:36;;;;;;;71.80;28.80;;;7.30;95.20;;;;;;4390840;32;20209;-66
2021/01/28 01:49:09;;;;;;;61.80;26.27;;;7.30;95.20;;;;;;4390373;32;20217;-65
2021/01/28 01:51:39;;;;;;;68.67;27.40;;;7.20;95.20;;;;;;4390256;32;20529;-66
2021/01/28 01:54:10;;;;;;;66.87;27.53;;;7.20;95.40;;;;;;4375626;32;20215;-65
2021/01/28 01:56:42;;;;;;;81.33;31.13;;;7.10;95.40;;;;;;4383349;32;20168;-65
2021/01/28 01:59:15;;;;;;;75.40;29.87;;;7.10;95.40;;;;;;4391928;32;20521;-65
2021/01/28 02:01:45;;;;;;;94.07;32.40;;;7.10;95.40;;;;;;4390007;32;20172;-65
2021/01/28 02:04:13;;;;;;;112.10;33.97;;;7.10;95.60;;;;;;4390521;32;20252;-65
2021/01/28 02:06:43;;;;;;;85.70;31.00;;;7.00;95.60;;;;;;4390939;32;20214;-65
2021/01/28 02:09:12;;;;;;;83.77;30.03;;;7.10;95.60;;;;;;4390364;32;20179;-65
2021/01/28 02:11:39;;;;;;;89.10;31.23;;;7.10;95.60;;;;;;4389265;32;20233;-65
2021/01/28 02:14:08;;;;;;;87.60;32.47;;;7.10;95.60;;;;;;4390713;32;20567;-64
2021/01/28 02:16:38;;;;;;;74.33;28.27;;;7.10;95.50;;;;;;4389924;32;20176;-65
2021/01/28 02:19:11;;;;;;;80.70;30.80;;;7.10;95.60;;;;;;4389913;32;20305;-65
2021/01/28 02:21:37;;;;;;;84.20;29.53;;;7.10;95.60;;;;;;4384953;32;20191;-66
2021/01/28 02:24:26;;;;;;;77.43;31.30;;;7.10;95.50;;;;;;4380840;32;20208;-66
2021/01/28 02:26:54;;;;;;;82.30;32.80;;;7.10;95.40;;;;;;4389229;32;20505;-66
2021/01/28 02:29:22;;;;;;;83.30;30.87;;;7.20;95.40;;;;;;4379121;32;20499;-66
2021/01/28 02:31:52;;;;;;;85.30;31.50;;;7.10;95.40;;;;;;4389060;32;20573;-66
2021/01/28 02:34:21;;;;;;;77.00;30.00;;;7.10;95.50;;;;;;4389672;32;20223;-66
2021/01/28 02:36:49;;;;;;;82.10;31.80;;;7.10;95.40;;;;;;4390148;32;20225;-65
2021/01/28 02:39:18;;;;;;;65.47;28.20;;;7.10;95.40;;;;;;4390978;32;20247;-65
2021/01/28 02:41:52;;;;;;;79.23;30.47;;;7.10;95.40;;;;;;4390250;32;20168;-66
2021/01/28 02:44:22;;;;;;;77.13;30.17;;;7.10;95.40;;;;;;4390238;32;20153;-66
2021/01/28 02:46:48;;;;;;;81.47;32.10;;;7.10;95.50;;;;;;4389968;32;20250;-66
2021/01/28 02:49:17;;;;;;;75.63;29.63;;;7.10;95.50;;;;;;4384285;32;20208;-66
2021/01/28 02:51:43;;;;;;;83.03;31.17;;;7.20;95.50;;;;;;4389348;32;20159;-65
2021/01/28 02:54:10;;;;;;;75.93;28.77;;;7.10;95.40;;;;;;4391468;32;20208;-66
2021/01/28 02:56:36;;;;;;;76.30;29.70;;;7.10;95.40;;;;;;4391472;32;20430;-66
2021/01/28 02:59:06;;;;;;;80.70;31.20;;;7.10;95.40;;;;;;4390044;32;20257;-66
2021/01/28 03:01:34;;;;;;;66.03;28.87;;;7.00;95.50;;;;;;4385828;32;20164;-65
2021/01/28 03:04:01;;;;;;;80.37;30.90;;;7.10;95.50;;;;;;4393176;32;20220;-65
2021/01/28 03:06:27;;;;;;;71.10;29.47;;;7.10;95.50;;;;;;4394538;32;20220;-65
2021/01/28 03:08:53;;;;;;;74.33;29.10;;;7.10;95.50;;;;;;4392871;32;20532;-65
2021/01/28 03:11:20;;;;;;;67.60;28.63;;;7.00;95.40;;;;;;4392648;32;20172;-65
2021/01/28 03:13:47;;;;;;;62.20;26.50;;;7.10;95.40;;;;;;4392756;32;20164;-65
2021/01/28 03:16:13;;;;;;;64.10;28.60;;;7.10;95.40;;;;;;4190216;32;6479348;-66
2021/01/28 03:18:40;;;;;;;62.00;26.30;;;7.10;95.30;;;;;;4384957;32;20208;-66
2021/01/28 03:21:07;;;;;;;53.93;23.97;;;7.10;95.20;;;;;;4392405;32;20198;-66
2021/01/28 03:23:33;;;;;;;60.63;26.77;;;7.10;95.30;;;;;;4392847;32;20239;-66
2021/01/28 03:25:59;;;;;;;62.67;26.83;;;7.10;95.30;;;;;;4392918;32;20168;-66
2021/01/28 03:28:26;;;;;;;64.67;27.07;;;7.10;95.20;;;;;;4381983;32;20195;-66
2021/01/28 03:30:52;;;;;;;59.80;25.60;;;7.20;95.30;;;;;;4392748;32;20156;-65
2021/01/28 03:33:23;;;;;;;63.03;27.17;;;7.10;95.20;;;;;;4392473;32;20195;-65
2021/01/28 03:35:51;;;;;;;59.80;26.20;;;7.10;95.20;;;;;;4392517;32;20212;-65
2021/01/28 03:38:19;;;;;;;66.90;26.20;;;7.10;95.20;;;;;;4392677;32;20251;-65
2021/01/28 03:40:46;;;;;;;54.27;23.73;;;7.10;95.10;;;;;;4387766;32;20605;-65
2021/01/28 03:43:12;;;;;;;60.60;25.90;;;7.10;95.20;;;;;;4392289;32;20247;-65
2021/01/28 03:45:38;;;;;;;54.10;23.80;;;7.10;95.20;;;;;;4393513;32;20227;-65
2021/01/28 03:48:06;;;;;;;56.27;23.70;;;7.10;95.10;;;;;;4392663;32;20144;-65
2021/01/28 03:50:34;;;;;;;58.70;24.70;;;7.10;95.10;;;;;;4393414;32;20212;-65
2021/01/28 03:53:02;;;;;;;63.73;26.27;;;7.10;95.10;;;;;;4391927;32;20289;-65
2021/01/28 03:55:29;;;;;;;71.23;27.53;;;7.10;95.20;;;;;;4392768;32;20250;-65
2021/01/28 03:57:55;;;;;;;70.97;27.70;;;7.10;95.20;;;;;;4392522;32;20212;-64
2021/01/28 04:00:34;;;;;;;64.17;28.00;;;7.10;95.20;;;;;;4392528;32;20195;-66
2021/01/28 04:03:01;;;;;;;68.67;27.60;;;7.00;95.20;;;;;;4379867;32;20213;-65
2021/01/28 04:05:28;;;;;;;61.23;25.83;;;7.00;95.20;;;;;;4382600;32;20206;-65
2021/01/28 04:07:55;;;;;;;67.67;27.30;;;7.10;95.40;;;;;;4392829;32;20558;-65
2021/01/28 04:10:27;;;;;;;67.43;28.43;;;7.00;95.40;;;;;;4390509;32;20187;-66
2021/01/28 04:12:53;;;;;;;92.97;32.90;;;7.00;95.40;;;;;;4393207;32;20611;-65
2021/01/28 04:15:21;;;;;;;73.50;29.90;;;7.00;95.40;;;;;;4391420;32;20225;-65
2021/01/28 04:17:48;;;;;;;71.63;30.77;;;7.00;95.50;;;;;;4391172;32;20215;-65
2021/01/28 04:20:16;;;;;;;66.53;29.20;;;7.00;95.50;;;;;;4391804;32;20205;-65
2021/01/28 04:22:42;;;;;;;71.57;29.70;;;7.00;95.50;;;;;;4391934;32;20164;-65
2021/01/28 04:25:10;;;;;;;64.63;26.77;;;7.10;95.40;;;;;;4391217;32;20254;-65
2021/01/28 04:27:37;;;;;;;80.10;30.60;;;7.10;95.40;;;;;;4391341;32;20211;-65
2021/01/28 04:30:05;;;;;;;72.67;30.27;;;7.10;95.40;;;;;;4392664;32;20211;-65
2021/01/28 04:32:31;;;;;;;69.93;31.07;;;7.10;95.30;;;;;;4389123;32;20224;-64
2021/01/28 04:34:57;;;;;;;63.80;29.80;;;7.20;95.30;;;;;;4391510;32;20215;-65
2021/01/28 04:37:23;;;;;;;68.83;30.00;;;7.00;95.70;;;;;;4391167;32;20218;-65
2021/01/28 04:39:51;;;;;;;72.17;30.00;;;7.00;95.40;;;;;;4392812;32;20145;-65
2021/01/28 04:42:21;;;;;;;70.17;30.07;;;7.00;95.50;;;;;;4393198;32;20204;-65
2021/01/28 04:44:48;;;;;;;69.40;30.33;;;7.00;95.70;;;;;;4391308;32;20535;-65
2021/01/28 04:47:18;;;;;;;67.40;31.63;;;7.00;95.50;;;;;;4387264;32;20232;-65
2021/01/28 04:49:52;;;;;;;81.57;31.97;;;7.00;95.60;;;;;;4384122;32;20156;-65
2021/01/28 04:52:20;;;;;;;71.13;29.43;;;7.00;95.50;;;;;;4391294;32;20218;-65
2021/01/28 04:54:46;;;;;;;63.17;30.00;;;7.00;95.60;;;;;;4391043;32;20239;-65
2021/01/28 04:57:13;;;;;;;83.20;32.70;;;6.90;95.60;;;;;;4392132;32;20172;-64
2021/01/28 04:59:52;;;;;;;78.63;31.40;;;6.90;95.50;;;;;;4393102;32;20178;-64
2021/01/28 05:02:22;;;;;;;100.60;31.93;;;6.90;95.60;;;;;;4387585;32;20182;-66
2021/01/28 05:04:52;;;;;;;93.33;34.60;;;6.90;95.60;;;;;;4392414;32;20192;-65
2021/01/28 05:07:26;;;;;;;87.47;33.10;;;6.80;95.60;;;;;;4390681;32;20217;-65
2021/01/28 05:10:08;;;;;;;73.50;32.13;;;6.90;95.80;;;;;;4392119;32;20219;-65
2021/01/28 05:12:34;;;;;;;122.03;40.00;;;6.80;95.80;;;;;;4386875;32;20251;-65
2021/01/28 05:15:12;;;;;;;81.83;29.70;;;6.80;95.80;;;;;;4384133;32;20172;-65
2021/01/28 05:17:42;;;;;;;90.60;35.10;;;6.80;95.90;;;;;;4390922;32;20254;-65
2021/01/28 05:20:15;;;;;;;113.43;36.33;;;6.70;95.90;;;;;;4391194;32;20211;-65
2021/01/28 05:22:44;;;;;;;94.33;32.10;;;6.70;96.00;;;;;;4379247;32;20550;-66
2021/01/28 05:25:15;;;;;;;103.43;34.60;;;6.70;96.00;;;;;;4383284;32;20168;-65
2021/01/28 05:27:42;;;;;;;93.83;31.63;;;6.80;96.00;;;;;;4390970;32;20155;-65
2021/01/28 05:30:14;;;;;;;92.43;32.50;;;6.80;96.00;;;;;;4390795;32;20381;-65
2021/01/28 05:32:44;;;;;;;102.67;33.37;;;6.80;95.90;;;;;;4390952;32;20625;-65
2021/01/28 05:35:17;;;;;;;123.73;37.23;;;6.70;96.00;;;;;;4390771;32;20278;-64
2021/01/28 05:37:44;;;;;;;98.40;33.37;;;6.70;96.00;;;;;;4384859;32;20212;-65
2021/01/28 05:40:14;;;;;;;87.53;30.27;;;6.70;95.90;;;;;;4390964;32;20195;-65
2021/01/28 05:42:43;;;;;;;98.53;31.83;;;6.70;96.00;;;;;;4392813;32;20198;-65
2021/01/28 05:45:27;;;;;;;90.20;31.20;;;6.70;96.00;;;;;;4389848;32;20160;-65
2021/01/28 05:47:54;;;;;;;100.83;30.70;;;6.70;96.00;;;;;;4391269;32;20156;-65
2021/01/28 05:50:28;;;;;;;88.77;28.70;;;6.70;96.00;;;;;;4390265;32;20292;-64
2021/01/28 05:53:08;;;;;;;86.93;28.60;;;6.70;96.00;;;;;;4377923;32;20174;-64
2021/01/28 05:55:35;;;;;;;81.33;27.80;;;6.60;96.10;;;;;;4389559;32;20175;-64
2021/01/28 05:58:05;;;;;;;75.97;27.33;;;6.60;96.20;;;;;;4390356;32;20167;-64
2021/01/28 06:00:40;;;;;;;63.03;24.87;;;6.60;96.20;;;;;;4389897;32;20179;-63
2021/01/28 06:03:43;;;;;;;73.17;25.40;;;6.70;96.30;;;;;;4386608;32;20199;-63
2021/01/28 06:06:23;;;;;;;102.87;29.03;;;6.60;96.30;;;;;;4389769;32;20254;-64
2021/01/28 06:09:07;;;;;;;67.50;23.70;;;6.60;96.30;;;;;;4389727;32;20699;-64
2021/01/28 06:11:54;;;;;;;65.50;23.90;;;6.50;96.40;;;;;;4390685;32;20176;-63
2021/01/28 06:14:58;;;;;;;63.30;21.77;;;6.60;96.40;;;;;;4391396;32;20156;-63
2021/01/28 06:17:52;;;;;;;67.43;23.97;;;6.50;96.50;;;;;;4388286;32;20183;-64
2021/01/28 06:20:44;;;;;;;57.67;21.07;;;6.50;96.50;;;;;;4313217;33;20211;-63
2021/01/28 06:23:30;;;;;;;44.67;19.87;;;6.60;96.60;;;;;;4314032;33;20169;-63
2021/01/28 06:26:18;;;;;;;61.53;20.97;;;6.60;96.60;;;;;;4314690;33;20166;-63
2021/01/28 06:29:09;;;;;;;46.80;20.17;;;6.60;96.60;;;;;;4312509;33;20634;-63
2021/01/28 06:31:46;;;;;;;66.47;21.77;;;6.60;96.50;;;;;;4313854;33;20179;-63
2021/01/28 06:34:38;;;;;;;49.63;18.57;;;6.50;96.50;;;;;;4308511;33;21497;-63
2021/01/28 06:37:16;;;;;;;47.47;18.63;;;6.50;96.60;;;;;;4309060;33;20208;-63
2021/01/28 06:39:48;;;;;;;39.17;16.23;;;6.60;96.60;;;;;;4307737;33;20233;-63
2021/01/28 06:42:23;;;;;;;47.80;18.33;;;6.50;96.60;;;;;;4311982;33;20165;-63
2021/01/28 06:44:56;;;;;;;41.37;17.03;;;6.50;96.60;;;;;;4312793;33;20310;-63
2021/01/28 06:47:26;;;;;;;48.13;17.57;;;6.50;96.70;;;;;;4309333;33;20174;-63
2021/01/28 06:50:00;;;;;;;36.83;15.43;;;6.50;96.70;;;;;;4311435;33;20229;-63
2021/01/28 06:53:03;;;;;;;44.70;16.73;;;6.50;96.60;;;;;;4308965;33;20240;-63
2021/01/28 06:55:36;;;;;;;35.67;14.13;;;6.50;96.70;;;;;;4266371;33;20393;-64
2021/01/28 06:58:24;;;;;;;31.37;12.80;;;6.50;96.70;;;;;;4318109;33;20263;-64
2021/01/28 07:00:57;;;;;;;32.13;13.67;;;6.50;96.70;;;;;;4326587;33;20241;-64
2021/01/28 07:03:32;;;;;;;32.50;12.53;;;6.50;96.60;;;;;;4328890;33;20636;-63
2021/01/28 07:06:05;;;;;;;30.53;12.67;;;6.50;96.60;;;;;;4331116;33;20267;-62
2021/01/28 07:08:56;;;;;;;25.50;11.30;;;6.40;96.60;;;;;;4327186;33;20195;-63
2021/01/28 07:11:35;;;;;;;31.43;11.10;;;6.40;96.60;;;;;;4329036;33;20173;-63
2021/01/28 07:14:03;;;;;;;26.43;11.03;;;6.30;96.70;;;;;;4334529;33;20220;-62
2021/01/28 07:16:35;;;;;;;25.33;11.07;;;6.30;96.70;;;;;;4327460;33;20176;-63
2021/01/28 07:19:09;;;;;;;24.50;9.33;;;6.30;96.70;;;;;;4306191;33;20203;-63
2021/01/28 07:21:40;;;;;;;33.63;12.10;;;6.20;96.70;;;;;;4305329;33;20219;-63
2021/01/28 07:24:11;;;;;;;20.97;9.53;;;6.20;96.80;;;;;;4303642;33;20235;-65
2021/01/28 07:26:56;;;;;;;18.87;9.97;;;6.30;96.90;;;;;;4305165;33;20188;-67
2021/01/28 07:29:55;;;;;;;24.87;9.07;;;6.20;96.90;;;;;;4336860;32;20251;-62
2021/01/28 07:32:51;;;;;;;17.13;8.07;;;6.20;96.80;;;;;;4368277;32;20247;-63
2021/01/28 07:35:40;;;;;;;20.50;9.57;;;6.20;96.90;;;;;;4346135;32;20605;-66
2021/01/28 07:38:46;;;;;;;18.00;8.70;;;6.20;96.80;;;;;;4369271;32;20156;-63
2021/01/28 07:41:26;;;;;;;28.47;10.43;;;6.20;96.80;;;;;;4362370;32;20237;-66
2021/01/28 07:43:55;;;;;;;22.70;9.30;;;6.20;96.90;;;;;;4370794;32;20620;-63
2021/01/28 07:46:38;;;;;;;19.90;9.47;;;6.20;96.90;;;;;;4371170;32;20535;-66
2021/01/28 07:49:18;;;;;;;17.60;8.93;;;6.20;96.80;;;;;;4370913;32;20216;-63
2021/01/28 07:51:50;;;;;;;19.00;8.10;;;6.20;96.80;;;;;;4370333;32;20250;-66
2021/01/28 07:54:37;;;;;;;21.90;10.17;;;6.10;96.80;;;;;;4371385;32;20212;-63
2021/01/28 07:57:10;;;;;;;17.77;9.80;;;6.10;96.80;;;;;;4371581;32;20180;-64
2021/01/28 07:59:48;;;;;;;26.17;9.97;;;6.20;96.90;;;;;;4372094;32;20152;-63
2021/01/28 08:02:19;;;;;;;19.90;9.20;;;6.20;96.80;;;;;;4372091;32;20152;-63
2021/01/28 08:04:49;;;;;;;14.93;8.47;;;6.20;96.80;;;;;;4371523;32;20160;-64
2021/01/28 08:07:22;;;;;;;16.33;8.73;;;6.10;96.80;;;;;;4370644;32;20190;-65
2021/01/28 08:09:53;;;;;;;16.27;9.17;;;6.10;96.80;;;;;;4370381;32;20349;-63
2021/01/28 08:12:28;;;;;;;19.00;9.10;;;6.10;96.80;;;;;;4368458;32;20211;-63
2021/01/28 08:14:58;;;;;;;16.80;8.77;;;6.10;96.80;;;;;;4370170;32;20282;-62
2021/01/28 08:17:33;;;;;;;16.83;8.03;;;6.10;96.80;;;;;;4377404;32;20190;-63
2021/01/28 08:20:18;;;;;;;12.53;7.60;;;6.10;96.80;;;;;;4383210;32;20572;-65
2021/01/28 08:22:53;;;;;;;12.87;7.00;;;6.10;96.80;;;;;;4383095;32;20514;-63
2021/01/28 08:25:21;;;;;;;16.37;7.47;;;6.10;96.70;;;;;;4383167;32;20597;-63
2021/01/28 08:27:48;;;;;;;18.00;8.23;;;6.10;96.80;;;;;;4387326;32;20514;-63
2021/01/28 08:30:18;;;;;;;15.10;8.53;;;6.10;96.80;;;;;;4384391;32;20164;-67
2021/01/28 08:32:46;;;;;;;16.00;8.50;;;6.10;96.70;;;;;;4385455;32;20588;-63
2021/01/28 08:35:16;;;;;;;14.83;8.33;;;6.00;96.70;;;;;;4382791;32;20496;-64
2021/01/28 08:37:42;;;;;;;12.20;6.97;;;6.00;96.80;;;;;;4385776;32;20212;-63
2021/01/28 08:40:16;;;;;;;12.53;6.83;;;6.00;96.70;;;;;;4384268;32;20227;-62
2021/01/28 08:42:50;;;;;;;11.73;6.80;;;6.00;96.80;;;;;;4384782;32;20633;-64
2021/01/28 08:45:22;;;;;;;20.40;8.50;;;6.00;96.70;;;;;;4383387;32;20529;-68
2021/01/28 08:47:57;;;;;;;11.13;6.93;;;6.00;96.70;;;;;;4385405;32;20216;-64
2021/01/28 08:50:26;;;;;;;12.73;7.20;;;5.90;96.70;;;;;;4384239;32;20576;-64
2021/01/28 08:52:54;;;;;;;12.80;7.30;;;6.00;96.80;;;;;;4379476;32;20479;-65
2021/01/28 08:55:36;;;;;;;9.97;6.70;;;6.00;96.70;;;;;;4381737;32;20544;-65
2021/01/28 08:58:14;;;;;;;11.10;6.30;;;6.00;96.70;;;;;;4383345;32;20270;-64
2021/01/28 09:00:45;;;;;;;11.60;7.03;;;6.00;96.70;;;;;;4380828;32;20191;-63
2021/01/28 09:03:18;;;;;;;11.97;6.53;;;6.00;96.70;;;;;;4384178;32;20228;-67
2021/01/28 09:05:46;;;;;;;11.77;6.30;;;6.00;96.70;;;;;;4382207;32;20274;-65
2021/01/28 09:08:26;;;;;;;10.67;6.43;;;6.00;96.70;;;;;;4384396;32;20249;-65
2021/01/28 09:11:05;;;;;;;7.73;6.20;;;6.00;96.70;;;;;;4384469;32;20219;-62
2021/01/28 09:13:32;;;;;;;9.93;5.83;;;5.90;96.70;;;;;;4386385;32;20235;-64
2021/01/28 09:16:08;;;;;;;9.77;6.10;;;5.90;96.60;;;;;;4384681;32;20208;-63
2021/01/28 09:18:38;;;;;;;9.63;5.47;;;5.90;96.70;;;;;;4385084;32;20190;-63
2021/01/28 09:21:10;;;;;;;6.77;5.50;;;5.90;96.70;;;;;;4384960;32;20590;-64
2021/01/28 09:23:38;;;;;;;8.97;5.13;;;5.90;96.70;;;;;;4384584;32;20190;-65
2021/01/28 09:26:22;;;;;;;8.73;5.80;;;5.90;96.70;;;;;;4380960;32;20219;-64
2021/01/28 09:29:11;;;;;;;8.87;5.37;;;5.90;96.70;;;;;;4378721;32;20215;-64
2021/01/28 09:32:04;;;;;;;7.07;5.23;;;5.90;96.80;;;;;;4380732;32;20160;-62
2021/01/28 09:34:30;;;;;;;7.77;5.47;;;5.90;96.80;;;;;;4381288;32;20288;-64
2021/01/28 09:36:59;;;;;;;7.70;5.37;;;6.00;96.70;;;;;;4379615;32;20230;-62
2021/01/28 09:39:30;;;;;;;7.83;5.13;;;6.00;96.60;;;;;;4375233;32;20168;-63
2021/01/28 09:42:09;;;;;;;6.33;4.93;;;6.00;96.60;;;;;;4378938;32;20169;-63
2021/01/28 09:44:39;;;;;;;9.10;5.07;;;5.90;96.60;;;;;;4382421;32;20207;-63
2021/01/28 09:47:24;;;;;;;7.17;4.80;;;5.90;96.60;;;;;;4380355;32;20187;-64
2021/01/28 09:49:53;;;;;;;10.10;5.97;;;5.90;96.70;;;;;;4375678;32;20235;-62
2021/01/28 09:52:26;;;;;;;8.77;5.80;;;5.90;96.60;;;;;;4375515;32;20247;-63
2021/01/28 09:54:55;;;;;;;8.23;6.27;;;5.90;96.60;;;;;;4378229;32;20179;-63
2021/01/28 09:57:22;;;;;;;10.97;6.97;;;5.90;96.70;;;;;;4381808;32;20212;-61
2021/01/28 09:59:49;;;;;;;7.73;5.83;;;6.00;96.80;;;;;;4380444;32;20178;-61
2021/01/28 10:02:19;;;;;;;11.73;6.13;;;6.00;96.80;;;;;;4372705;32;20267;-64
2021/01/28 10:04:46;;;;;;;8.17;5.63;;;6.00;96.70;;;;;;4379450;32;20184;-63
2021/01/28 10:07:16;;;;;;;11.63;6.23;;;6.10;96.70;;;;;;4378905;32;20182;-64
2021/01/28 10:09:46;;;;;;;8.07;5.70;;;6.10;96.70;;;;;;4382391;32;20160;-63
2021/01/28 10:12:14;;;;;;;6.00;4.80;;;6.00;96.50;;;;;;4383079;32;20182;-63
2021/01/28 10:14:42;;;;;;;8.20;5.10;;;5.90;96.70;;;;;;4375894;32;20282;-62
2021/01/28 10:17:13;;;;;;;7.67;5.07;;;6.00;96.70;;;;;;4379664;32;20481;-64
2021/01/28 10:19:44;;;;;;;6.80;5.43;;;6.00;96.70;;;;;;4384455;32;20199;-63
2021/01/28 10:22:11;;;;;;;7.33;4.90;;;6.00;96.60;;;;;;4381336;32;20569;-67
2021/01/28 10:24:38;;;;;;;6.60;4.23;;;6.00;96.50;;;;;;4384178;32;20607;-62
2021/01/28 10:27:05;;;;;;;4.83;3.80;;;6.00;96.50;;;;;;4381365;32;20466;-64
2021/01/28 10:29:32;;;;;;;5.97;4.43;;;6.00;96.50;;;;;;4376291;32;20227;-66
2021/01/28 10:31:58;;;;;;;8.00;4.43;;;6.00;96.40;;;;;;4381639;32;20223;-68
2021/01/28 10:34:25;;;;;;;4.57;3.80;;;5.90;96.50;;;;;;4382374;32;20156;-65
2021/01/28 10:36:52;;;;;;;6.47;4.17;;;5.90;96.50;;;;;;4381888;32;20524;-64
2021/01/28 10:39:18;;;;;;;6.27;4.60;;;5.90;96.60;;;;;;4385085;32;21485;-62
2021/01/28 10:41:48;;;;;;;5.97;3.93;;;6.00;96.60;;;;;;4386226;32;20588;-63
2021/01/28 10:44:20;;;;;;;5.57;4.13;;;6.10;96.60;;;;;;4383828;32;20203;-65
2021/01/28 10:46:47;;;;;;;6.00;4.00;;;6.00;96.50;;;;;;4382955;32;20171;-64
2021/01/28 10:49:16;;;;;;;4.70;3.97;;;6.00;96.60;;;;;;4385314;32;20215;-66
2021/01/28 10:51:43;;;;;;;4.80;4.10;;;6.00;96.60;;;;;;4383282;32;20278;-63
2021/01/28 10:54:10;;;;;;;5.37;4.10;;;6.00;96.70;;;;;;4385510;32;20203;-63
2021/01/28 10:56:36;;;;;;;5.20;3.83;;;6.00;96.70;;;;;;4384425;32;20163;-63
2021/01/28 10:59:03;;;;;;;5.03;3.90;;;6.10;96.70;;;;;;4380813;32;20219;-63
2021/01/28 11:01:30;;;;;;;5.40;3.60;;;6.20;96.70;;;;;;4382131;32;20169;-66
2021/01/28 11:03:56;;;;;;;5.40;3.87;;;6.20;96.60;;;;;;4383499;32;20463;-64
2021/01/28 11:06:23;;;;;;;6.17;4.27;;;6.20;96.60;;;;;;4382646;32;20211;-67
2021/01/28 11:08:50;;;;;;;4.20;3.80;;;6.40;96.40;;;;;;4383858;32;20164;-67
2021/01/28 11:11:17;;;;;;;5.77;4.20;;;6.30;96.20;;;;;;4382844;32;20202;-63
2021/01/28 11:13:44;;;;;;;5.23;4.43;;;6.30;96.20;;;;;;4384059;32;20211;-63
2021/01/28 11:16:11;;;;;;;5.80;4.20;;;6.30;96.10;;;;;;4380456;32;20271;-64
2021/01/28 11:18:38;;;;;;;6.00;4.70;;;6.30;96.20;;;;;;4383037;32;20231;-64
2021/01/28 11:21:05;;;;;;;6.77;4.80;;;6.40;96.20;;;;;;4380105;32;20208;-64
2021/01/28 11:23:31;;;;;;;7.00;4.80;;;6.40;96.20;;;;;;4384376;32;20211;-64
2021/01/28 11:25:58;;;;;;;5.73;4.73;;;6.50;96.10;;;;;;4382009;32;20182;-62
2021/01/28 11:28:25;;;;;;;7.40;5.90;;;6.50;95.90;;;;;;4382854;32;20716;-62
2021/01/28 11:30:51;;;;;;;9.00;6.33;;;6.40;95.90;;;;;;4381162;32;20179;-62
2021/01/28 11:33:18;;;;;;;7.17;6.07;;;6.50;96.10;;;;;;4381527;32;20639;-63
2021/01/28 11:35:44;;;;;;;9.13;6.20;;;6.50;95.90;;;;;;4382352;32;20194;-63
2021/01/28 11:38:11;;;;;;;9.07;6.53;;;6.50;95.90;;;;;;4388650;32;20230;-63
2021/01/28 11:40:37;;;;;;;8.70;7.10;;;6.60;95.70;;;;;;4387992;32;20220;-64
2021/01/28 11:43:06;;;;;;;8.10;6.70;;;6.50;95.70;;;;;;4391515;32;20681;-64
2021/01/28 11:45:35;;;;;;;9.07;7.50;;;6.50;95.90;;;;;;4391310;32;20521;-68
2021/01/28 11:48:04;;;;;;;9.13;6.53;;;6.50;95.80;;;;;;4391372;32;20186;-68
2021/01/28 11:50:31;;;;;;;9.43;7.73;;;6.50;95.80;;;;;;4385472;32;20259;-63
2021/01/28 11:52:57;;;;;;;10.83;8.00;;;6.50;95.70;;;;;;4392960;32;20160;-64
2021/01/28 11:55:26;;;;;;;12.40;9.87;;;6.50;96.00;;;;;;4390058;32;20294;-67
2021/01/28 11:57:52;;;;;;;13.77;9.33;;;6.50;96.10;;;;;;4389797;32;20192;-65
2021/01/28 12:00:22;;;;;;;13.50;10.30;;;6.40;96.10;;;;;;4391832;32;20632;-67
2021/01/28 12:02:48;;;;;;;17.90;11.57;;;6.40;96.00;;;;;;4391333;32;20195;-67
2021/01/28 12:05:18;;;;;;;16.17;11.07;;;6.40;96.00;;;;;;4389505;32;20164;-65
2021/01/28 12:07:44;;;;;;;17.03;12.03;;;6.40;96.10;;;;;;4387162;32;20160;-67
2021/01/28 12:10:15;;;;;;;20.63;13.10;;;6.30;96.10;;;;;;4388608;32;20183;-64
2021/01/28 12:12:42;;;;;;;17.47;11.77;;;6.30;96.20;;;;;;4387702;32;20199;-66
2021/01/28 12:15:09;;;;;;;16.27;11.87;;;6.40;96.20;;;;;;4408535;32;20269;-64
2021/01/28 12:17:37;;;;;;;16.43;12.17;;;6.40;96.20;;;;;;4417368;32;20312;-63
2021/01/28 12:20:07;;;;;;;17.47;12.53;;;6.40;96.10;;;;;;4421492;32;20655;-66
2021/01/28 12:22:34;;;;;;;16.83;12.27;;;6.30;96.10;;;;;;4416982;32;20179;-64
2021/01/28 12:25:01;;;;;;;17.80;12.10;;;6.40;96.20;;;;;;4413885;32;20264;-65
2021/01/28 12:27:27;;;;;;;16.73;12.63;;;6.30;96.20;;;;;;4418973;32;20618;-66
2021/01/28 12:29:53;;;;;;;16.33;12.07;;;6.40;96.30;;;;;;4416246;32;20163;-66
2021/01/28 12:32:20;;;;;;;16.87;12.17;;;6.30;96.10;;;;;;4416201;32;20271;-66
2021/01/28 12:34:50;;;;;;;15.63;12.17;;;6.30;96.20;;;;;;4421874;32;20220;-65
2021/01/28 12:37:16;;;;;;;13.43;10.67;;;6.40;96.20;;;;;;4420902;32;20181;-66
2021/01/28 12:39:42;;;;;;;16.10;11.60;;;6.40;96.00;;;;;;4421676;32;20584;-63
2021/01/28 12:42:09;;;;;;;18.27;11.37;;;6.50;96.10;;;;;;4421283;32;20664;-65
2021/01/28 12:44:35;;;;;;;14.27;11.53;;;6.50;96.00;;;;;;4420080;32;20159;-65
2021/01/28 12:47:02;;;;;;;17.97;12.57;;;6.60;95.90;;;;;;4420136;32;20225;-65
2021/01/28 12:49:28;;;;;;;13.37;10.77;;;6.60;95.90;;;;;;4418371;32;20312;-67
2021/01/28 12:51:55;;;;;;;14.97;12.10;;;6.50;95.60;;;;;;4412335;32;20215;-64
2021/01/28 12:54:22;;;;;;;17.97;13.27;;;6.50;95.70;;;;;;4413804;32;20541;-66
2021/01/28 12:56:49;;;;;;;13.83;11.00;;;6.50;95.80;;;;;;4411905;32;20181;-66
2021/01/28 12:59:15;;;;;;;12.27;10.50;;;6.60;95.70;;;;;;4414200;32;20231;-65
2021/01/28 13:01:42;;;;;;;12.37;10.47;;;6.50;95.70;;;;;;4413804;32;20277;-64